VHHHRPVP

Guest
Details From VHHH - Hong Kong Intl
To RPVP - Puerto Princesa
Flight Number -
Tags Generated
Created
Modified
Stats Distance 805 nm / 1,490 km
Max Altitude 0 ft / 0 m
Waypoints 3
Social Downloads 1
Likes 0
Share VATSIM

Download

Looking for another format? Having issues loading an existing format? Contact us
Advertisement - Login to hide

Notes

Generated

Route

VHHH PR RPVP

ID Type Via Altitude Latitude Longitude Leg Dist Tot Dist Heading (true) Name
O VHHH APT - 0 ft / 0 m 22.29628˚ 113.89799˚ - 0 nm - -
PR VOR - 0 ft / 0 m 9.74133˚ 118.75294˚ 804 nm 804 nm 159° / 160° PUERTO PRINCESA VOR-DME
O RPVP APT - 0 ft / 0 m 9.74263˚ 118.74689˚ 0 nm 804 nm 282° / 282° -

Altitude Profile

Advertisement - Login to hide

Weather


0- 5 10 15 20 25 30 35+ Temperature / ° C

Clouds and Precipitation
Forecast for 2017-12-18 18:00 UTC. Updated 2 hours ago

Ground ~20,000 ft ~40,000 ft Winds

VHHH

Details ICAO VHHH (HKG)
Name Hong Kong Intl
Region Hong Kong
Timezone Unknown (UTC+0.0)
Stats Elevation 28 ft / 9 m (AMSL)
Location 22.308995° 113.914610°
Runways 2
Magnetic Variation 2.823° W

METAR

VHHH 181900Z 01012KT CAVOK 11/M06 Q1026 NOSIG

Decode

TAF

TAF VHHH 181700Z 1818/1924 01015KT 9000 NSC TX16/1906Z TN09/1823Z TN09/1923Z

Decode

Departure Runways

ID Width Length Bearing (true) Bearing (mag) Surface Threshold Offset Overrun Length
07L 197 ft / 60 m 12,457 ft / 3,797 m 70.79° 73.61° Asphalt 564 ft / 172 m 866 ft / 264 m
07R 197 ft / 60 m 12,458 ft / 3,797 m 70.79° 73.61° Asphalt 525 ft / 160 m 886 ft / 270 m
25L 197 ft / 60 m 12,458 ft / 3,797 m 250.80° 253.62° Asphalt 0 ft / 0 m 840 ft / 256 m
25R 197 ft / 60 m 12,457 ft / 3,797 m 250.80° 253.62° Asphalt 581 ft / 177 m 860 ft / 262 m

RPVP

Details ICAO RPVP (PPS)
Name PUERTO PRINCESA
Region Philippines
Timezone Asia/Manila (UTC+8.0)
Stats Elevation 71 ft / 22 m (AMSL)
Location 9.742119° 118.758730°
Runways 1
Magnetic Variation 1.156° W

METAR

RPVP 181800Z 15006KT 9999 SCT019 BKN080 27/25 Q1006 RMK A2971

Decode

TAF

Not found

Destination Runways

ID Width Length Bearing (true) Bearing (mag) Surface Threshold Offset Overrun Length
09 148 ft / 45 m 8,526 ft / 2,599 m 92.52° 93.68° Concrete 0 ft / 0 m 560 ft / 171 m
27 148 ft / 45 m 8,526 ft / 2,599 m 272.52° 273.68° Concrete 0 ft / 0 m 574 ft / 175 m